• Join FlightAware (Why Join?)
  • Login
  • US Flag 
09:53AM EST


 

Airport Tracker/Info


-or-


 

Live Flight TrackerFlight Track Log ✈ DAL4164 ✈ 10-Aug-2014 ✈ KCVG - KDCA

Flight Track Log - Related Links

Times and Time Zones

All times are in EDT time to prevent confusion due to time zone crossing. See the DAL4164 flight status page for this flight to view local times or setup timezone preferences in your user account.

Time Position Orientation Groundspeed Altitude Reporting Facility
EDT Latitude Longitude Course Direction KTS MPH feet Rate Location/Type
09:38PM 39.0333 -84.6500 180° South 180 207 1,400  Level Cincinnati TRACON
09:38PM 39.0167 -84.6500 180° South 164 189 2,300 2,760 Climbing Cincinnati TRACON
09:39PM 38.9667 -84.6333 165° South 209 241 5,000 2,100 Climbing Cincinnati TRACON
09:40PM 38.9500 -84.5500 104° East 279 321 6,300 1,980 Climbing Cincinnati TRACON
09:41PM 38.9381 -84.4708 101° East 276 318 8,700 2,340 Climbing Indianapolis Center
09:42PM 38.9236 -84.3706 100° East 282 325 11,000 1,740 Climbing Indianapolis Center
09:43PM 38.9072 -84.2553 100° East 320 368 12,300 1,800 Climbing Indianapolis Center
09:44PM 38.8856 -84.1033 100° East 353 406 14,800 2,040 Climbing Indianapolis Center
09:45PM 38.8628 -83.9736 103° East 369 425 16,600 1,800 Climbing Indianapolis Center
09:46PM 38.8328 -83.8414 106° East 380 437 18,500 1,620 Climbing Indianapolis Center
09:47PM 38.8036 -83.7072 106° East 388 447 20,000 1,260 Climbing Indianapolis Center
09:48PM 38.7736 -83.5681 105° East 399 459 21,200 1,260 Climbing Indianapolis Center
09:49PM 38.7653 -83.4153 94° East 424 488 22,600 1,320 Climbing Indianapolis Center
09:50PM 38.7636 -83.2619 91° East 430 495 23,900 1,260 Climbing Indianapolis Center
09:51PM 38.7636 -83.0942 90° East 436 502 25,200 1,140 Climbing Indianapolis Center
09:52PM 38.7625 -82.9333 90° East 446 513 26,300 1,080 Climbing Indianapolis Center
09:53PM 38.7211 -82.7775 109° East 463 533 27,400 1,140 Climbing Indianapolis Center
09:54PM 38.6553 -82.5961 115° Southeast 466 536 28,700 1,140 Climbing Indianapolis Center
09:55PM 38.5994 -82.4444 115° Southeast 470 541 29,800 1,080 Climbing Indianapolis Center
09:56PM 38.5431 -82.2903 115° Southeast 475 547 30,900 1,200 Climbing Indianapolis Center
09:57PM 38.4858 -82.1378 116° Southeast 478 550 32,300 1,140 Climbing Indianapolis Center
09:58PM 38.4308 -81.9889 115° Southeast 475 547 33,300 960 Climbing Indianapolis Center
09:59PM 38.3742 -81.8381 116° Southeast 475 547 34,300 780 Climbing Indianapolis Center
10:00PM 38.3467 -81.6764 102° East 478 550 35,000 300 Climbing Indianapolis Center
10:01PM 38.3411 -81.5067 92° East 479 551 35,000  Level Indianapolis Center
10:02PM 38.3342 -81.2967 92° East 496 571 35,000  Level Indianapolis Center
10:03PM 38.3272 -81.1200 93° East 499 574 35,000  Level Indianapolis Center
10:04PM 38.3208 -80.9408 93° East 504 580 35,000  Level Indianapolis Center
10:05PM 38.3147 -80.7619 92° East 507 583 35,000 -600 Level Indianapolis Center
10:06PM 38.3083 -80.5808 93° East 508 585 33,900 -1,260 Descending Indianapolis Center
10:07PM 38.3056 -80.4711 92° East 509 586 33,000 -1,380 Descending Washington Center
10:08PM 38.2981 -80.2933 93° East 509 586 31,700 -1,020 Descending Washington Center
10:09PM 38.2922 -80.1183 92° East 499 574 31,000 -540 Descending Washington Center
10:10PM 38.3047 -79.9497 85° East 493 567 30,700 -720 Descending Washington Center
10:11PM 38.3356 -79.7875 76° East 479 551 29,600 -1,140 Descending Washington Center
10:12PM 38.3661 -79.6250 76° East 479 551 28,500 -1,140 Descending Washington Center
10:13PM 38.3964 -79.4675 76° East 474 545 27,400 -1,140 Descending Washington Center
10:14PM 38.4244 -79.3100 77° East 461 531 26,300 -1,140 Descending Washington Center
10:15PM 38.4519 -79.1550 77° East 455 524 25,200 -1,140 Descending Washington Center
10:16PM 38.4792 -79.0050 77° East 448 516 24,100 -1,080 Descending Washington Center
10:17PM 38.4975 -78.8758 80° East 428 493 23,100 -1,080 Descending Washington Center
10:18PM 38.5200 -78.7389 78° East 417 480 22,000 -1,140 Descending Washington Center
10:19PM 38.5403 -78.5992 79° East 405 466 20,900 -1,200 Descending Washington Center
10:20PM 38.5644 -78.4619 77° East 400 460 19,600 -1,440 Descending Washington Center
10:21PM 38.5842 -78.3272 79° East 393 452 18,100 -1,560 Descending Washington Center
10:22PM 38.6142 -78.1981 73° East 383 441 16,600 -1,620 Descending Washington Center
10:23PM 38.6519 -78.0825 67° East 365 420 14,900 -1,680 Descending Washington Center
10:24PM 38.6875 -77.9719 68° East 351 404 13,300 -1,440 Descending Washington Center
10:25PM 38.7208 -77.8694 67° East 327 376 12,100 -1,200 Descending Washington Center
10:26PM 38.7664 -77.7803 57° Northeast 302 348 11,000 -600 Descending Washington Center
10:27PM 38.8197 -77.7019 49° Northeast 295 339 11,000 -660 Level Washington Center
10:28PM 38.8819 -77.6103 49° Northeast 295 339 9,700 -1,380 Descending Washington Center
10:29PM 38.9289 -77.5422 48° Northeast 290 334 8,400 -1,440 Descending Washington Center
10:30PM 38.9667 -77.4167 69° East 260 299 6,400 -1,140 Descending Potomac TRACON
10:31PM 39.0000 -77.3333 63° Northeast 254 292 5,800 -1,200 Descending Potomac TRACON
10:32PM 39.0167 -77.2500 76° East 257 296 4,100 -1,440 Descending Potomac TRACON
10:33PM 38.9833 -77.1833 123° Southeast 248 285 3,100 -900 Descending Potomac TRACON
10:34PM 38.9333 -77.1333 142° Southeast 197 227 2,400 -1,020 Descending Potomac TRACON
10:35PM 38.9000 -77.0833 131° Southeast 174 200 1,100 -960 Descending Potomac TRACON
10:36PM 38.8833 -77.0500 123° Southeast 146 168 500 -600 Descending Potomac TRACON
10:38PM 38.8519 -77.0377 169° South  Level Estimated
10:45PM 38.8500 -77.0333 North  Level FlightAware Approximate
10:46PM 38.8519 -77.0377 169° South  Level Estimated